Time;durP1;ratioP1;P1;durP2;ratioP2;P2;SDS_P1;SDS_P2;PMS_P1;PMS_P2;Temp;Humidity;BMP_temperature;BMP_pressure;BME280_temperature;BME280_humidity;BME280_pressure;Samples;Min_cycle;Max_cycle;Signal;HPM_P1;HPM_P2
2024/01/11 00:02:07;;;;;;;;;35.25;24.25;;;;;0.17;59.44;102508.78;5074456;28;66405;-52
2024/01/11 00:04:33;;;;;;;;;33.25;22.25;;;;;0.14;59.31;102508.69;5077247;28;45429;-48
2024/01/11 00:06:58;;;;;;;;;27.50;26.00;;;;;0.12;59.27;102513.91;5073429;28;45866;-51
2024/01/11 00:09:23;;;;;;;;;41.25;31.25;;;;;0.14;59.35;102520.06;5049599;28;69573;-51
2024/01/11 00:11:49;;;;;;;;;33.25;28.25;;;;;0.15;58.99;102507.84;5071826;28;68721;-51
2024/01/11 00:14:14;;;;;;;;;31.75;25.00;;;;;0.15;59.96;102513.94;5076585;28;46157;-52
2024/01/11 00:16:39;;;;;;;;;35.00;30.50;;;;;0.16;59.19;102501.78;5069264;28;45485;-51
2024/01/11 00:19:05;;;;;;;;;24.50;23.50;;;;;0.16;59.78;102505.25;5066470;28;45438;-52
2024/01/11 00:21:30;;;;;;;;;34.50;30.25;;;;;0.16;58.92;102502.63;5064043;28;67419;-53
2024/01/11 00:23:55;;;;;;;;;27.75;24.25;;;;;0.15;59.87;102493.00;5072263;28;75692;-48
2024/01/11 00:26:21;;;;;;;;;30.75;24.00;;;;;0.17;59.71;102500.94;5069134;28;45541;-50
2024/01/11 00:28:46;;;;;;;;;29.75;24.75;;;;;0.17;59.27;102503.53;5058618;28;69034;-53
2024/01/11 00:31:11;;;;;;;;;33.75;28.25;;;;;0.19;59.61;102511.41;5074567;28;60990;-47
2024/01/11 00:33:37;;;;;;;;;23.50;22.25;;;;;0.19;59.47;102509.66;5074614;28;46002;-53
2024/01/11 00:36:03;;;;;;;;;28.25;17.25;;;;;0.21;59.83;102513.22;5075538;28;63442;-50
2024/01/11 00:38:28;;;;;;;;;33.75;21.75;;;;;0.28;59.69;102524.69;5066371;28;45432;-51
2024/01/11 00:40:54;;;;;;;;;32.25;23.50;;;;;0.37;59.84;102527.50;5071577;28;55526;-52
2024/01/11 00:43:19;;;;;;;;;28.75;23.50;;;;;0.45;59.21;102525.91;5070230;28;46641;-50
2024/01/11 00:45:45;;;;;;;;;33.00;25.25;;;;;0.53;59.33;102523.44;5071750;28;70968;-52
2024/01/11 00:48:11;;;;;;;;;34.50;29.00;;;;;0.56;59.26;102528.75;5073174;28;45524;-49
2024/01/11 00:50:37;;;;;;;;;38.00;33.00;;;;;0.59;59.09;102530.53;5060761;28;45589;-49
2024/01/11 00:53:02;;;;;;;;;31.00;28.00;;;;;0.64;59.17;102537.63;5073528;28;64920;-51
2024/01/11 00:55:28;;;;;;;;;31.50;25.75;;;;;0.70;59.58;102541.22;5054632;28;45459;-51
2024/01/11 00:57:53;;;;;;;;;23.00;21.25;;;;;0.73;58.86;102544.78;5071968;28;45552;-52
2024/01/11 01:00:19;;;;;;;;;29.75;24.75;;;;;0.79;58.80;102531.75;5070609;28;70577;-49
2024/01/11 01:02:44;;;;;;;;;30.00;25.50;;;;;0.84;59.49;102541.47;5070649;28;45963;-52
2024/01/11 01:05:10;;;;;;;;;35.25;24.25;;;;;0.85;58.54;102536.25;5065900;28;69645;-52
2024/01/11 01:07:35;;;;;;;;;35.00;24.75;;;;;0.86;58.88;102545.88;5059914;28;45889;-52
2024/01/11 01:10:01;;;;;;;;;32.75;25.25;;;;;0.90;59.20;102545.09;5075710;28;59961;-52
2024/01/11 01:12:27;;;;;;;;;21.25;21.25;;;;;0.94;58.86;102543.38;5074135;28;47294;-52
2024/01/11 01:14:52;;;;;;;;;36.75;35.50;;;;;0.96;59.06;102539.06;5066149;28;56902;-53
2024/01/11 01:17:17;;;;;;;;;28.50;22.00;;;;;0.95;59.18;102543.44;5073142;28;67195;-51
2024/01/11 01:19:43;;;;;;;;;31.75;24.50;;;;;0.95;59.05;102540.81;5068299;28;61259;-50
2024/01/11 01:22:09;;;;;;;;;31.50;27.75;;;;;0.94;58.53;102546.91;5075346;28;47598;-48
2024/01/11 01:24:34;;;;;;;;;35.25;25.50;;;;;0.96;58.52;102541.69;5074915;28;70337;-51
2024/01/11 01:27:00;;;;;;;;;27.25;23.25;;;;;0.98;58.72;102539.97;5053762;28;66881;-51
2024/01/11 01:29:25;;;;;;;;;35.75;29.50;;;;;0.97;59.00;102548.69;5068006;28;45477;-51
2024/01/11 01:31:51;;;;;;;;;19.75;18.25;;;;;0.93;58.47;102552.13;5057863;28;47118;-52
2024/01/11 01:34:16;;;;;;;;;32.25;28.00;;;;;0.89;59.20;102558.16;5065855;28;74789;-53
2024/01/11 01:36:41;;;;;;;;;29.00;26.00;;;;;0.85;58.51;102553.69;5072227;28;45441;-49
2024/01/11 01:39:07;;;;;;;;;31.00;28.00;;;;;0.78;58.98;102564.09;5075706;28;45803;-52
2024/01/11 01:41:32;;;;;;;;;24.50;18.25;;;;;0.72;58.55;102556.09;5071630;28;47066;-51
2024/01/11 01:43:58;;;;;;;;;30.75;28.25;;;;;0.69;59.60;102563.88;5066977;28;45842;-52
2024/01/11 01:46:24;;;;;;;;;31.75;29.25;;;;;0.66;59.50;102561.22;5077465;28;62545;-53
2024/01/11 01:48:52;;;;;;;;;40.75;31.50;;;;;0.65;59.13;102573.44;5069691;28;45537;-52
2024/01/11 01:51:17;;;;;;;;;34.25;24.50;;;;;0.62;59.74;102569.88;5054627;28;46148;-49
2024/01/11 01:53:42;;;;;;;;;23.50;19.50;;;;;0.59;59.75;102578.56;5057975;28;72844;-52
2024/01/11 01:56:08;;;;;;;;;20.25;15.50;;;;;0.59;59.19;102589.03;5057068;28;67869;-52
2024/01/11 01:58:34;;;;;;;;;28.25;25.25;;;;;0.58;59.30;102596.88;5065510;28;45576;-51
2024/01/11 02:01:00;;;;;;;;;37.50;33.00;;;;;0.56;59.96;102593.31;5074894;28;52908;-51
2024/01/11 02:03:27;;;;;;;;;30.75;26.75;;;;;0.53;59.35;102588.91;5075323;28;45443;-51
2024/01/11 02:05:53;;;;;;;;;35.50;30.25;;;;;0.49;59.83;102579.22;5050603;28;45962;-51
2024/01/11 02:08:22;;;;;;;;;28.75;24.00;;;;;0.46;59.98;102595.75;5073462;28;45604;-51
2024/01/11 02:10:47;;;;;;;;;32.75;26.50;;;;;0.41;59.31;102600.00;5079246;28;45542;-51
2024/01/11 02:13:13;;;;;;;;;28.00;23.00;;;;;0.40;60.09;102603.47;5064775;28;68741;-52
2024/01/11 02:15:38;;;;;;;;;31.25;28.25;;;;;0.39;59.89;102600.81;5071164;28;45295;-51
2024/01/11 02:18:04;;;;;;;;;36.75;33.00;;;;;0.36;59.33;102609.50;5072713;28;45427;-53
2024/01/11 02:20:29;;;;;;;;;30.75;23.75;;;;;0.33;60.31;102612.06;5066093;28;47524;-52
2024/01/11 02:23:06;;;;;;;;;33.00;24.50;;;;;0.31;59.57;102614.66;5075051;28;45271;-52
2024/01/11 02:25:31;;;;;;;;;40.50;30.75;;;;;0.30;59.78;102606.75;5060494;28;45498;-51
2024/01/11 02:27:57;;;;;;;;;29.75;26.25;;;;;0.29;60.22;102608.50;5066456;28;70536;-51
2024/01/11 02:30:22;;;;;;;;;35.50;27.50;;;;;0.31;59.56;102613.75;5076527;28;62584;-52
2024/01/11 02:32:49;;;;;;;;;28.25;24.75;;;;;0.33;59.86;102622.53;5069411;28;45411;-53
2024/01/11 02:35:18;;;;;;;;;23.50;18.00;;;;;0.31;59.53;102621.59;5037148;28;45759;-51
2024/01/11 02:37:44;;;;;;;;;38.25;25.75;;;;;0.31;59.59;102626.84;5071436;28;45695;-52
2024/01/11 02:40:10;;;;;;;;;30.00;21.75;;;;;0.31;59.99;102621.59;5077617;28;47136;-49
2024/01/11 02:42:35;;;;;;;;;28.75;24.75;;;;;0.31;60.13;102617.28;5057516;28;45466;-52
2024/01/11 02:45:03;;;;;;;;;31.25;27.50;;;;;0.32;60.01;102621.63;5078716;28;59155;-50
2024/01/11 02:47:28;;;;;;;;;25.75;23.00;;;;;0.35;60.10;102619.94;5067912;28;45872;-53
2024/01/11 02:49:54;;;;;;;;;25.25;20.75;;;;;0.35;60.27;102618.19;5058652;28;71914;-51
2024/01/11 02:52:19;;;;;;;;;31.50;24.25;;;;;0.36;60.22;102625.22;5079176;28;45364;-49
2024/01/11 02:54:44;;;;;;;;;42.25;29.75;;;;;0.36;59.89;102625.22;5067330;28;45726;-50
2024/01/11 02:57:09;;;;;;;;;24.25;20.75;;;;;0.33;60.28;102620.78;5070910;28;69165;-49
2024/01/11 02:59:36;;;;;;;;;28.50;21.25;;;;;0.32;60.23;102616.41;5064109;28;69230;-52
2024/01/11 03:02:01;;;;;;;;;25.25;24.50;;;;;0.31;60.68;102617.28;5075325;28;45536;-51
2024/01/11 03:04:26;;;;;;;;;35.75;23.25;;;;;0.32;60.20;102623.38;5069079;28;45811;-49
2024/01/11 03:06:52;;;;;;;;;28.25;27.50;;;;;0.31;59.96;102621.59;5072661;28;46345;-53
2024/01/11 03:09:17;;;;;;;;;39.00;29.00;;;;;0.30;59.75;102625.06;5068271;28;62683;-53
2024/01/11 03:11:42;;;;;;;;;42.50;31.50;;;;;0.27;60.46;102618.03;5056472;28;53891;-48
2024/01/11 03:14:08;;;;;;;;;32.75;25.50;;;;;0.23;60.79;102631.03;5067358;28;66928;-52
2024/01/11 03:16:33;;;;;;;;;32.25;26.75;;;;;0.23;60.80;102628.41;5068118;28;45465;-51
2024/01/11 03:18:59;;;;;;;;;29.75;26.75;;;;;0.23;60.55;102634.53;5045974;28;46508;-50
2024/01/11 03:21:24;;;;;;;;;34.75;29.75;;;;;0.22;60.03;102634.50;5071701;28;45301;-47
2024/01/11 03:23:50;;;;;;;;;26.50;21.25;;;;;0.20;60.82;102633.59;5072269;28;68100;-47
2024/01/11 03:26:18;;;;;;;;;33.00;23.50;;;;;0.19;60.61;102631.81;5066661;28;57410;-52
2024/01/11 03:28:43;;;;;;;;;35.00;26.50;;;;;0.18;60.89;102627.44;5071679;28;46967;-52
2024/01/11 03:31:09;;;;;;;;;27.25;16.50;;;;;0.15;60.10;102636.09;5059547;28;72956;-49
2024/01/11 03:33:35;;;;;;;;;24.75;21.25;;;;;0.15;60.54;102641.34;5069224;28;45789;-51
2024/01/11 03:36:07;;;;;;;;;36.50;25.75;;;;;0.14;60.81;102639.56;5057136;28;45446;-52
2024/01/11 03:38:32;;;;;;;;;34.00;29.25;;;;;0.12;60.64;102638.66;5071407;28;45574;-51
2024/01/11 03:40:58;;;;;;;;;27.50;20.25;;;;;0.12;60.28;102638.66;5069213;28;67848;-51
2024/01/11 03:43:23;;;;;;;;;30.00;27.00;;;;;0.12;60.65;102639.53;5050347;28;68627;-49
2024/01/11 03:45:48;;;;;;;;;29.75;26.00;;;;;0.13;60.60;102635.16;5047333;28;45765;-52
2024/01/11 03:48:14;;;;;;;;;33.50;23.25;;;;;0.16;60.61;102637.88;5071720;28;70752;-48
2024/01/11 03:50:39;;;;;;;;;27.75;23.00;;;;;0.16;60.95;102638.75;5062747;28;71877;-51
2024/01/11 03:53:04;;;;;;;;;33.25;21.25;;;;;0.18;60.62;102646.63;5053968;28;67420;-48
2024/01/11 03:55:30;;;;;;;;;29.00;23.50;;;;;0.20;60.92;102637.09;5069097;28;62030;-51
2024/01/11 03:57:55;;;;;;;;;27.00;22.75;;;;;0.21;61.08;102635.34;5052045;28;66821;-50
2024/01/11 04:00:20;;;;;;;;;37.00;28.25;;;;;0.23;60.88;102639.75;5053776;28;72594;-50
2024/01/11 04:02:46;;;;;;;;;25.25;19.75;;;;;0.25;60.98;102642.41;5073321;28;45655;-50
2024/01/11 04:05:11;;;;;;;;;30.50;20.50;;;;;0.26;60.84;102636.31;5072361;28;45821;-53
2024/01/11 04:07:36;;;;;;;;;23.50;14.00;;;;;0.28;60.85;102634.63;5068153;28;62471;-52
2024/01/11 04:10:02;;;;;;;;;28.00;23.00;;;;;0.29;60.99;102642.53;5069738;28;47575;-51
2024/01/11 04:12:27;;;;;;;;;26.75;23.25;;;;;0.30;61.36;102646.91;5066442;28;45727;-53
2024/01/11 04:14:53;;;;;;;;;23.50;20.25;;;;;0.31;60.82;102656.53;5076905;28;65296;-51
2024/01/11 04:17:18;;;;;;;;;25.25;21.00;;;;;0.32;61.27;102652.19;5066706;28;75593;-51
2024/01/11 04:19:43;;;;;;;;;31.50;21.50;;;;;0.33;61.27;102648.72;5075892;28;72193;-51
2024/01/11 04:22:09;;;;;;;;;30.75;23.25;;;;;0.33;60.84;102657.44;5065797;28;65757;-52
2024/01/11 04:24:35;;;;;;;;;28.25;24.00;;;;;0.35;61.61;102654.84;5069492;28;45635;-53
2024/01/11 04:27:01;;;;;;;;;29.25;26.00;;;;;0.35;60.40;102660.09;5070601;28;45421;-54
2024/01/11 04:29:26;;;;;;;;;29.75;25.50;;;;;0.34;61.45;102658.34;5069025;28;70752;-51
2024/01/11 04:31:51;;;;;;;;;26.25;21.75;;;;;0.34;60.59;102658.34;5072255;28;63607;-50
2024/01/11 04:34:16;;;;;;;;;37.50;32.50;;;;;0.35;61.41;102661.84;5072713;28;45563;-47
2024/01/11 04:36:42;;;;;;;;;33.25;22.50;;;;;0.31;60.79;102667.00;5076544;28;47010;-49
2024/01/11 04:39:07;;;;;;;;;30.25;21.25;;;;;0.32;60.95;102666.13;5066423;28;68534;-47
2024/01/11 04:41:35;;;;;;;;;19.25;15.50;;;;;0.31;61.23;102666.09;5076771;28;56625;-49
2024/01/11 04:44:01;;;;;;;;;28.25;22.25;;;;;0.32;60.51;102674.00;5068361;28;45620;-48
2024/01/11 04:46:26;;;;;;;;;29.00;27.00;;;;;0.31;61.22;102671.34;5055296;28;58263;-49
2024/01/11 04:48:52;;;;;;;;;35.75;26.00;;;;;0.31;61.08;102681.81;5057933;28;64883;-50
2024/01/11 04:51:18;;;;;;;;;23.25;20.00;;;;;0.32;60.93;102678.34;5073085;28;45579;-50
2024/01/11 04:53:44;;;;;;;;;25.25;19.50;;;;;0.31;60.08;102667.00;5066430;28;45588;-51
2024/01/11 04:56:11;;;;;;;;;29.25;26.00;;;;;0.31;60.51;102660.88;5070746;28;46194;-48
2024/01/11 04:58:39;;;;;;;;;31.75;24.00;;;;;0.32;60.51;102675.75;5070022;28;45380;-47
2024/01/11 05:01:05;;;;;;;;;25.25;20.25;;;;;0.32;60.60;102675.75;5070736;28;45539;-47
2024/01/11 05:03:31;;;;;;;;;24.25;21.75;;;;;0.34;60.66;102687.16;5066016;28;45766;-48
2024/01/11 05:05:57;;;;;;;;;23.50;19.00;;;;;0.32;60.93;102683.59;5063240;28;46795;-49
2024/01/11 05:08:22;;;;;;;;;25.75;23.25;;;;;0.31;60.90;102684.44;5066572;28;45446;-51
2024/01/11 05:10:48;;;;;;;;;36.50;24.00;;;;;0.29;61.35;102689.66;5069207;28;45778;-50
2024/01/11 05:13:13;;;;;;;;;29.00;21.00;;;;;0.28;61.11;102685.25;5070221;28;45662;-49
2024/01/11 05:15:39;;;;;;;;;27.75;23.50;;;;;0.27;60.87;102680.84;5066712;28;45930;-49
2024/01/11 05:18:04;;;;;;;;;28.25;25.50;;;;;0.26;60.86;102681.72;5063253;28;70588;-49
2024/01/11 05:20:29;;;;;;;;;31.50;25.00;;;;;0.26;61.23;102684.34;5066562;28;68032;-50
2024/01/11 05:22:55;;;;;;;;;23.25;18.75;;;;;0.25;60.66;102684.28;5071727;28;69375;-51
2024/01/11 05:25:20;;;;;;;;;24.00;22.50;;;;;0.25;60.75;102681.66;5070584;28;72559;-53
2024/01/11 05:27:45;;;;;;;;;15.25;13.50;;;;;0.27;61.08;102674.75;5071974;28;64176;-51
2024/01/11 05:30:11;;;;;;;;;20.75;16.75;;;;;0.26;61.17;102671.25;5079009;28;45336;-49
2024/01/11 05:32:36;;;;;;;;;22.25;17.00;;;;;0.28;60.83;102680.00;5074642;28;45503;-50
2024/01/11 05:35:01;;;;;;;;;24.00;22.00;;;;;0.29;61.37;102667.84;5057337;28;45312;-52
2024/01/11 05:37:27;;;;;;;;;28.75;23.75;;;;;0.29;61.67;102673.06;5066675;28;45443;-51
2024/01/11 05:39:54;;;;;;;;;23.50;18.50;;;;;0.30;61.18;102672.19;5071976;28;67233;-50
2024/01/11 05:42:19;;;;;;;;;32.50;29.50;;;;;0.32;60.70;102683.59;5066265;28;45437;-53
2024/01/11 05:44:44;;;;;;;;;19.75;18.50;;;;;0.31;61.30;102682.72;5070055;28;68019;-52
2024/01/11 05:47:10;;;;;;;;;19.50;18.75;;;;;0.34;62.04;102692.38;5073770;28;45431;-52
2024/01/11 05:49:35;;;;;;;;;28.50;23.25;;;;;0.32;61.78;102691.44;5069762;28;66381;-47
2024/01/11 05:52:01;;;;;;;;;27.25;22.25;;;;;0.32;60.92;102699.31;5071871;28;45642;-51
2024/01/11 05:54:28;;;;;;;;;27.75;21.75;;;;;0.33;61.32;102694.09;5043825;28;55839;-53
2024/01/11 05:56:55;;;;;;;;;31.00;24.00;;;;;0.34;61.63;102697.63;5068643;28;45599;-51
2024/01/11 05:59:21;;;;;;;;;20.75;18.25;;;;;0.34;61.83;102708.09;5061904;28;45548;-51
2024/01/11 06:01:47;;;;;;;;;28.00;22.75;;;;;0.34;61.25;102700.25;5066744;28;45576;-50
2024/01/11 06:04:12;;;;;;;;;23.00;19.00;;;;;0.36;61.81;102709.00;5073970;28;45263;-51
2024/01/11 06:06:37;;;;;;;;;26.50;14.75;;;;;0.36;62.06;102711.59;5069032;28;72627;-52
2024/01/11 06:09:04;;;;;;;;;23.50;16.75;;;;;0.37;61.47;102708.16;5065510;28;58732;-52
2024/01/11 06:11:30;;;;;;;;;22.50;15.75;;;;;0.37;62.25;102723.84;5062490;28;45591;-52
2024/01/11 06:13:55;;;;;;;;;20.25;16.25;;;;;0.38;61.27;102725.63;5063931;28;45629;-51
2024/01/11 06:16:20;;;;;;;;;19.25;19.25;;;;;0.38;61.24;102738.72;5063958;28;45467;-52
2024/01/11 06:18:46;;;;;;;;;23.50;15.25;;;;;0.38;61.87;102733.50;5058596;28;45659;-51
2024/01/11 06:21:11;;;;;;;;;28.00;15.75;;;;;0.39;61.78;102750.06;5065056;28;45297;-53
2024/01/11 06:23:36;;;;;;;;;24.75;20.25;;;;;0.39;61.67;102752.69;5071606;28;68207;-52
2024/01/11 06:26:02;;;;;;;;;24.50;20.75;;;;;0.40;62.02;102751.84;5049028;28;45384;-52
2024/01/11 06:28:28;;;;;;;;;25.00;23.00;;;;;0.38;61.86;102746.59;5076951;28;45370;-49
2024/01/11 06:30:53;;;;;;;;;31.00;23.25;;;;;0.38;62.26;102741.34;5072829;28;45417;-48
2024/01/11 06:33:20;;;;;;;;;26.50;22.75;;;;;0.36;62.47;102743.03;5076490;28;58176;-53
2024/01/11 06:35:45;;;;;;;;;24.50;24.25;;;;;0.36;61.84;102745.66;5069935;28;45463;-56
2024/01/11 06:38:11;;;;;;;;;28.00;22.50;;;;;0.38;62.26;102749.19;5049918;28;45403;-48
2024/01/11 06:40:36;;;;;;;;;31.75;20.25;;;;;0.40;62.22;102759.69;5052433;28;45496;-52
2024/01/11 06:43:02;;;;;;;;;26.00;24.25;;;;;0.39;61.97;102764.06;5041610;28;45703;-49
2024/01/11 06:45:27;;;;;;;;;29.00;28.50;;;;;0.39;62.25;102776.25;5046989;28;46064;-52
2024/01/11 06:47:52;;;;;;;;;36.75;27.50;;;;;0.38;61.85;102777.09;5074428;28;66929;-51
2024/01/11 06:50:18;;;;;;;;;27.33;20.33;;;;;0.37;62.48;102783.22;5079079;28;70841;-51
2024/01/11 06:52:43;;;;;;;;;31.25;22.00;;;;;0.36;61.94;102787.53;5062435;28;47005;-52
2024/01/11 06:55:10;;;;;;;;;21.75;19.50;;;;;0.36;61.88;102789.28;5079427;28;45327;-52
2024/01/11 06:57:35;;;;;;;;;26.00;20.25;;;;;0.36;62.60;102797.13;5071645;28;45465;-51
2024/01/11 07:00:01;;;;;;;;;14.25;14.00;;;;;0.35;62.21;102801.47;5079292;28;45586;-50
2024/01/11 07:02:26;;;;;;;;;21.00;21.00;;;;;0.35;62.16;102804.09;5062714;28;66133;-52
2024/01/11 07:04:51;;;;;;;;;28.00;22.75;;;;;0.35;62.40;102801.47;5068974;28;60032;-50
2024/01/11 07:07:18;;;;;;;;;24.50;20.25;;;;;0.35;61.89;102795.38;5078382;28;45403;-52
2024/01/11 07:09:44;;;;;;;;;22.25;19.75;;;;;0.34;62.84;102791.88;5076341;28;63569;-51
2024/01/11 07:12:09;;;;;;;;;13.25;10.25;;;;;0.35;62.61;102796.25;5068904;28;46303;-51
2024/01/11 07:14:35;;;;;;;;;29.00;19.50;;;;;0.36;62.64;102799.75;5076143;28;64951;-52
2024/01/11 07:17:00;;;;;;;;;31.75;21.75;;;;;0.36;63.18;102791.91;5050720;28;45601;-52
2024/01/11 07:19:26;;;;;;;;;38.00;20.50;;;;;0.36;62.46;102787.53;5077861;28;70837;-52
2024/01/11 07:21:51;;;;;;;;;21.75;19.00;;;;;0.38;63.08;102808.50;5073730;28;45984;-50
2024/01/11 07:24:18;;;;;;;;;22.25;18.50;;;;;0.39;63.07;102812.91;5068018;28;64784;-51
2024/01/11 07:26:43;;;;;;;;;32.50;22.00;;;;;0.39;62.83;102805.97;5054692;28;45929;-49
2024/01/11 07:29:09;;;;;;;;;27.25;23.75;;;;;0.40;62.82;102814.69;5075324;28;45486;-53
2024/01/11 07:31:34;;;;;;;;;25.00;20.00;;;;;0.40;62.41;102825.16;5066573;28;47608;-51
2024/01/11 07:33:59;;;;;;;;;30.00;23.50;;;;;0.39;62.24;102832.16;5073313;28;71720;-53
2024/01/11 07:36:25;;;;;;;;;25.50;20.25;;;;;0.41;62.20;102832.19;5060126;28;69328;-51
2024/01/11 07:38:50;;;;;;;;;34.50;26.50;;;;;0.40;62.98;102831.28;5075918;28;45305;-54
2024/01/11 07:41:16;;;;;;;;;17.75;11.25;;;;;0.41;62.80;102835.66;5069703;28;46910;-51
2024/01/11 07:43:41;;;;;;;;;27.00;19.50;;;;;0.41;63.08;102826.94;5070728;28;45770;-52
2024/01/11 07:46:07;;;;;;;;;32.75;24.50;;;;;0.43;62.81;102831.38;5068860;28;45705;-51
2024/01/11 07:48:33;;;;;;;;;27.75;25.75;;;;;0.45;63.14;102823.53;5058491;28;45763;-52
2024/01/11 07:50:59;;;;;;;;;24.25;21.50;;;;;0.46;62.56;102822.72;5077069;28;56080;-53
2024/01/11 07:53:25;;;;;;;;;24.75;19.25;;;;;0.47;62.77;102827.97;5077849;28;45524;-51
2024/01/11 07:55:51;;;;;;;;;28.00;20.75;;;;;0.48;62.39;102840.22;5077759;28;45553;-49
2024/01/11 07:58:16;;;;;;;;;31.50;25.00;;;;;0.50;62.61;102842.88;5067578;28;45570;-49
2024/01/11 08:00:42;;;;;;;;;30.75;23.75;;;;;0.51;62.47;102847.28;5079252;28;62868;-47
2024/01/11 08:03:08;;;;;;;;;25.00;24.25;;;;;0.54;63.17;102852.56;5078498;28;71332;-51
2024/01/11 08:05:34;;;;;;;;;26.75;26.75;;;;;0.54;63.02;102852.56;5061985;28;45498;-51
2024/01/11 08:08:01;;;;;;;;;27.75;21.25;;;;;0.57;62.91;102851.75;5078125;28;45449;-48
2024/01/11 08:10:27;;;;;;;;;25.50;15.25;;;;;0.58;62.74;102848.31;5061501;28;47223;-50
2024/01/11 08:12:52;;;;;;;;;26.75;25.00;;;;;0.61;63.18;102858.84;5079139;28;45374;-49
2024/01/11 08:15:17;;;;;;;;;27.25;21.00;;;;;0.62;62.94;102856.25;5078961;28;69310;-49
2024/01/11 08:17:46;;;;;;;;;24.00;18.25;;;;;0.65;62.51;102852.81;5078967;28;68541;-52
2024/01/11 08:20:11;;;;;;;;;21.75;20.50;;;;;0.69;62.37;102862.53;5079045;28;46163;-50
2024/01/11 08:22:39;;;;;;;;;30.00;23.75;;;;;0.71;62.25;102852.97;5061306;28;45365;-51
2024/01/11 08:25:05;;;;;;;;;31.00;22.00;;;;;0.73;62.83;102845.16;5067550;28;45378;-52
2024/01/11 08:27:31;;;;;;;;;24.00;22.00;;;;;0.76;62.97;102848.72;5078832;28;45375;-51
2024/01/11 08:29:57;;;;;;;;;25.50;21.75;;;;;0.82;62.78;102847.97;5061143;28;45371;-52
2024/01/11 08:32:22;;;;;;;;;22.75;19.25;;;;;0.87;62.87;102845.47;5081006;28;45423;-51
2024/01/11 08:34:47;;;;;;;;;28.75;26.50;;;;;0.89;62.36;102857.78;5079735;28;66544;-51
2024/01/11 08:37:14;;;;;;;;;25.75;21.75;;;;;0.93;62.28;102857.00;5079093;28;45458;-51
2024/01/11 08:39:39;;;;;;;;;36.25;24.00;;;;;0.97;62.53;102857.94;5079514;28;45300;-49
2024/01/11 08:42:05;;;;;;;;;26.75;20.50;;;;;1.01;62.90;102857.16;5043845;28;45429;-49
2024/01/11 08:44:30;;;;;;;;;25.75;22.25;;;;;1.05;62.50;102864.25;5079228;28;45451;-48
2024/01/11 08:46:57;;;;;;;;;27.00;20.50;;;;;1.07;62.15;102856.41;5078000;28;70259;-50
2024/01/11 08:49:22;;;;;;;;;29.00;27.00;;;;;1.09;61.83;102860.81;5079169;28;46155;-50
2024/01/11 08:51:48;;;;;;;;;26.50;24.75;;;;;1.11;62.19;102866.13;5078370;28;60998;-50
2024/01/11 08:54:16;;;;;;;;;26.50;22.50;;;;;1.13;61.88;102860.06;5057363;28;45556;-48
2024/01/11 08:56:41;;;;;;;;;35.75;33.50;;;;;1.14;61.61;102867.06;5075146;28;45653;-51
2024/01/11 08:59:08;;;;;;;;;22.00;15.50;;;;;1.13;61.47;102853.94;5047711;28;45912;-51
2024/01/11 09:01:35;;;;;;;;;42.75;35.25;;;;;1.14;61.98;102866.19;5057894;28;45368;-51
2024/01/11 09:04:01;;;;;;;;;27.00;26.00;;;;;1.14;61.87;102853.97;5070328;28;45449;-49
2024/01/11 09:06:26;;;;;;;;;31.50;28.25;;;;;1.19;61.83;102863.66;5079140;28;45549;-51
2024/01/11 09:08:52;;;;;;;;;33.75;32.00;;;;;1.20;61.30;102863.72;5077551;28;74189;-52
2024/01/11 09:11:17;;;;;;;;;42.75;36.25;;;;;1.24;61.31;102869.88;5078754;28;45370;-50
2024/01/11 09:13:43;;;;;;;;;34.50;31.00;;;;;1.24;61.30;102869.88;5077603;28;70255;-53
2024/01/11 09:16:09;;;;;;;;;29.50;22.00;;;;;1.24;61.56;102877.75;5077444;28;70556;-48
2024/01/11 09:18:34;;;;;;;;;28.75;28.50;;;;;1.27;61.80;102888.31;5078830;28;46181;-51
2024/01/11 09:21:00;;;;;;;;;46.75;38.25;;;;;1.33;61.93;102877.97;5078022;28;45384;-47
2024/01/11 09:23:25;;;;;;;;;50.50;38.00;;;;;1.38;61.47;102876.31;5078091;28;68349;-53
2024/01/11 09:25:50;;;;;;;;;32.50;31.75;;;;;1.42;61.64;102877.25;5065460;28;67833;-53
2024/01/11 09:28:15;;;;;;;;;45.25;36.50;;;;;1.46;61.87;102880.00;5078555;28;45422;-51
2024/01/11 09:30:41;;;;;;;;;39.25;29.75;;;;;1.49;61.65;102873.94;5077494;28;73167;-52
2024/01/11 09:33:06;;;;;;;;;35.00;25.25;;;;;1.53;61.16;102877.50;5077661;28;62242;-51
2024/01/11 09:35:32;;;;;;;;;29.00;24.75;;;;;1.56;61.66;102877.56;5078380;28;45396;-52
2024/01/11 09:37:57;;;;;;;;;36.75;30.25;;;;;1.56;60.81;102888.06;5078378;28;46433;-50
2024/01/11 09:40:22;;;;;;;;;35.75;29.75;;;;;1.55;60.75;102879.31;5060494;28;46244;-49
2024/01/11 09:42:48;;;;;;;;;31.00;27.75;;;;;1.51;60.36;102873.97;5077538;28;67903;-51
2024/01/11 09:45:18;;;;;;;;;36.75;32.00;;;;;1.52;60.96;102878.38;5056463;28;45373;-49
2024/01/11 09:47:47;;;;;;;;;46.00;34.75;;;;;1.52;60.09;102878.38;5069634;28;46218;-49
2024/01/11 09:50:17;;;;;;;;;31.50;25.75;;;;;1.50;60.10;102878.34;5077653;28;45441;-50
2024/01/11 09:52:50;;;;;;;;;40.75;32.00;;;;;1.54;60.00;102881.88;5060876;28;45399;-51
2024/01/11 09:55:17;;;;;;;;;43.75;31.75;;;;;1.56;59.83;102885.44;5065329;28;45352;-49
2024/01/11 09:57:52;;;;;;;;;43.50;35.25;;;;;1.60;60.05;102876.78;5067933;28;46969;-50
2024/01/11 10:00:23;;;;;;;;;41.00;34.75;;;;;2.08;59.75;102867.19;5059577;28;45376;-52
2024/01/11 10:02:48;;;;;;;;;38.25;37.00;;;;;3.27;59.54;102859.44;5078197;28;45300;-53
2024/01/11 10:05:16;;;;;;;;;43.00;30.00;;;;;4.50;54.68;102866.91;5059939;28;45486;-48
2024/01/11 10:07:41;;;;;;;;;51.25;38.50;;;;;5.58;54.55;102864.00;5059885;28;45478;-50
2024/01/11 10:10:08;;;;;;;;;52.50;41.25;;;;;6.49;53.96;102866.00;5055977;28;45417;-49
2024/01/11 10:12:37;;;;;;;;;24.00;22.75;;;;;7.28;49.84;102867.63;5077385;28;45419;-51
2024/01/11 10:15:09;;;;;;;;;34.50;29.00;;;;;7.92;50.55;102862.91;5062725;28;45535;-49
2024/01/11 10:17:35;;;;;;;;;33.00;30.00;;;;;8.42;49.63;102860.81;5081376;28;45593;-53
2024/01/11 10:20:02;;;;;;;;;32.00;27.50;;;;;8.85;47.22;102861.31;5081000;28;45415;-53
2024/01/11 10:22:27;;;;;;;;;35.75;31.50;;;;;9.21;43.99;102853.88;5081427;28;45565;-50
2024/01/11 10:25:08;;;;;;;;;33.75;26.50;;;;;9.56;43.52;102850.78;5080305;28;61918;-52
2024/01/11 10:27:34;;;;;;;;;32.25;30.25;;;;;9.85;42.84;102836.19;5081004;28;46458;-54
2024/01/11 10:29:59;;;;;;;;;41.00;30.67;;;;;10.07;39.91;102836.75;5078561;28;69149;-52
2024/01/11 10:32:28;;;;;;;;;32.75;29.75;;;;;10.26;38.43;102836.50;5081058;28;54666;-52
2024/01/11 10:34:53;;;;;;;;;35.50;31.75;;;;;10.46;41.50;102829.97;5063094;28;45657;-52
2024/01/11 10:37:20;;;;;;;;;31.33;30.33;;;;;10.63;39.48;102832.34;5080282;28;70016;-52
2024/01/11 10:39:46;;;;;;;;;47.75;36.75;;;;;10.83;42.64;102819.53;5063234;28;45387;-54
2024/01/11 10:42:13;;;;;;;;;35.75;30.00;;;;;10.93;40.12;102809.59;5080046;28;64333;-52
2024/01/11 10:44:44;;;;;;;;;39.00;34.50;;;;;11.00;40.53;102828.97;5061922;28;70368;-52
2024/01/11 10:47:10;;;;;;;;;33.50;32.00;;;;;10.95;39.64;102826.44;5062519;28;45363;-52
2024/01/11 10:49:39;;;;;;;;;48.50;35.25;;;;;10.98;37.54;102836.13;5061972;28;71997;-54
2024/01/11 10:52:06;;;;;;;;;45.25;35.25;;;;;11.06;40.52;102844.84;5080618;28;45394;-55
2024/01/11 10:54:34;;;;;;;;;42.00;33.00;;;;;11.14;39.08;102848.22;5063098;28;45377;-55
2024/01/11 10:57:00;;;;;;;;;39.00;33.50;;;;;11.12;38.44;102849.16;5046403;28;46224;-53
2024/01/11 10:59:26;;;;;;;;;45.25;32.75;;;;;10.96;38.19;102840.59;5073969;28;45418;-55
2024/01/11 11:01:56;;;;;;;;;37.00;32.00;;;;;10.88;38.65;102838.09;5080301;28;45358;-55
2024/01/11 11:04:22;;;;;;;;;35.33;31.67;;;;;10.89;36.24;102839.84;5062813;28;45487;-54
2024/01/11 11:06:49;;;;;;;;;42.25;34.00;;;;;10.86;38.37;102837.22;5081380;28;46435;-55
2024/01/11 11:09:14;;;;;;;;;34.50;31.00;;;;;10.82;38.58;102832.88;5046351;28;46098;-55
2024/01/11 11:11:40;;;;;;;;;41.33;29.67;;;;;10.76;36.87;102828.56;5059305;28;45908;-53